createdAt,value
2023-03-03T00:00:10.739Z,78.68
2023-03-03T00:02:38.073Z,81.32
2023-03-03T00:05:05.670Z,80.40
2023-03-03T00:07:32.952Z,80.40
2023-03-03T00:10:00.287Z,88.93
2023-03-03T00:12:28.725Z,90.80
2023-03-03T00:14:57.889Z,89.93
2023-03-03T00:17:26.263Z,92.78
2023-03-03T00:19:53.932Z,94.55
2023-03-03T00:22:26.884Z,97.82
2023-03-03T00:24:54.357Z,101.15
2023-03-03T00:27:27.883Z,102.22
2023-03-03T00:29:57.352Z,101.20
2023-03-03T00:32:25.963Z,93.75
2023-03-03T00:34:54.382Z,102.28
2023-03-03T00:37:26.380Z,96.68
2023-03-03T00:39:53.679Z,103.00
2023-03-03T00:42:20.969Z,107.70
2023-03-03T00:44:48.736Z,111.70
2023-03-03T00:47:30.687Z,107.10
2023-03-03T00:50:16.322Z,105.00
2023-03-03T00:52:46.312Z,114.03
2023-03-03T00:55:13.650Z,108.15
2023-03-03T00:57:40.936Z,116.38
2023-03-03T01:00:09.370Z,120.85
2023-03-03T01:02:38.061Z,109.82
2023-03-03T01:05:05.771Z,119.13
2023-03-03T01:07:33.047Z,116.95
2023-03-03T01:10:00.393Z,130.40
2023-03-03T01:12:27.792Z,116.45
2023-03-03T01:14:55.344Z,117.35
2023-03-03T01:17:22.690Z,128.50
2023-03-03T01:19:51.382Z,121.80
2023-03-03T01:22:18.683Z,124.60
2023-03-03T01:24:46.015Z,136.05
2023-03-03T01:27:13.409Z,126.30
2023-03-03T01:29:40.689Z,135.98
2023-03-03T01:32:08.024Z,135.40
2023-03-03T01:34:35.348Z,129.43
2023-03-03T01:37:04.066Z,127.88
2023-03-03T01:39:31.373Z,136.63
2023-03-03T01:41:58.656Z,144.30
2023-03-03T01:44:26.403Z,130.77
2023-03-03T01:46:56.175Z,137.85
2023-03-03T01:49:26.668Z,140.75
2023-03-03T01:51:55.701Z,142.32
2023-03-03T01:54:27.395Z,140.95
2023-03-03T01:56:55.999Z,142.38
2023-03-03T01:59:28.354Z,132.73
2023-03-03T02:01:55.755Z,138.18
2023-03-03T02:04:23.277Z,135.15
2023-03-03T02:06:52.692Z,138.32
2023-03-03T02:09:22.939Z,129.70
2023-03-03T02:11:53.566Z,134.75
2023-03-03T02:14:20.947Z,145.05
2023-03-03T02:16:48.254Z,140.60
2023-03-03T02:19:19.129Z,138.10
2023-03-03T02:21:46.561Z,132.90
2023-03-03T02:24:17.254Z,141.02
2023-03-03T02:26:46.462Z,150.18
2023-03-03T02:29:14.012Z,137.55
2023-03-03T02:31:41.396Z,134.45
2023-03-03T02:34:08.703Z,134.45
2023-03-03T02:36:36.994Z,138.48
2023-03-03T02:39:08.343Z,134.95
2023-03-03T02:41:37.548Z,138.20
2023-03-03T02:44:07.103Z,133.82
2023-03-03T02:46:35.365Z,144.43
2023-03-03T02:49:02.945Z,145.55
2023-03-03T02:51:30.343Z,138.13
2023-03-03T02:53:57.903Z,137.70
2023-03-03T02:56:25.327Z,136.45
2023-03-03T02:58:52.679Z,134.27
2023-03-03T03:01:21.396Z,138.77
2023-03-03T03:03:48.997Z,127.18
2023-03-03T03:06:16.367Z,128.73
2023-03-03T03:08:43.760Z,124.53
2023-03-03T03:11:11.143Z,117.57
2023-03-03T03:13:38.726Z,119.45
2023-03-03T03:16:06.247Z,115.53
2023-03-03T03:18:34.922Z,111.53
2023-03-03T03:21:07.096Z,114.97
2023-03-03T03:23:35.315Z,117.35
2023-03-03T03:26:02.682Z,111.82
2023-03-03T03:28:30.027Z,108.10
2023-03-03T03:30:57.476Z,111.25
2023-03-03T03:33:25.026Z,108.18
2023-03-03T03:35:55.565Z,117.57
2023-03-03T03:38:22.978Z,119.35
2023-03-03T03:40:50.307Z,124.03
2023-03-03T03:43:17.813Z,110.07
2023-03-03T03:45:45.179Z,111.28
2023-03-03T03:48:12.593Z,100.93
2023-03-03T03:50:39.970Z,104.70
2023-03-03T03:53:08.878Z,96.35
2023-03-03T03:55:36.178Z,100.88
2023-03-03T03:58:03.523Z,99.15
2023-03-03T04:00:30.980Z,94.50
2023-03-03T04:02:58.551Z,94.78
2023-03-03T04:05:25.922Z,99.30
2023-03-03T04:07:53.277Z,95.18
2023-03-03T04:10:21.913Z,96.22
2023-03-03T04:12:49.203Z,88.97
2023-03-03T04:15:16.542Z,94.68
2023-03-03T04:17:44.054Z,94.35
2023-03-03T04:20:13.688Z,94.65
2023-03-03T04:22:41.021Z,95.78
2023-03-03T04:25:08.927Z,99.28
2023-03-03T04:27:38.058Z,90.63
2023-03-03T04:30:06.401Z,90.80
2023-03-03T04:32:34.774Z,91.70
2023-03-03T04:35:10.517Z,85.85
2023-03-03T04:37:38.712Z,90.30
2023-03-03T04:40:06.898Z,91.88
2023-03-03T04:42:34.213Z,93.20
2023-03-03T04:45:02.891Z,87.88
2023-03-03T04:47:30.202Z,88.72
2023-03-03T04:49:57.496Z,95.25
2023-03-03T04:52:24.759Z,83.28
2023-03-03T04:54:52.073Z,91.28
2023-03-03T04:57:19.374Z,95.25
2023-03-03T04:59:46.791Z,89.55
2023-03-03T05:02:15.530Z,92.55
2023-03-03T05:04:42.843Z,91.65
2023-03-03T05:07:10.224Z,93.57
2023-03-03T05:09:37.940Z,101.15
2023-03-03T05:12:05.443Z,95.70
2023-03-03T05:14:32.818Z,93.75
2023-03-03T05:17:00.190Z,96.95
2023-03-03T05:19:28.839Z,96.63
2023-03-03T05:21:57.530Z,92.85
2023-03-03T05:24:25.100Z,104.93
2023-03-03T05:26:52.424Z,94.40
2023-03-03T05:29:19.726Z,94.32
2023-03-03T05:31:47.084Z,87.88
2023-03-03T05:34:14.485Z,89.20
2023-03-03T05:36:43.142Z,85.68
2023-03-03T05:39:10.438Z,78.63
2023-03-03T05:41:37.853Z,82.15
2023-03-03T05:44:05.244Z,73.72
2023-03-03T05:46:32.617Z,73.45
2023-03-03T05:49:00.015Z,74.63
2023-03-03T05:51:27.341Z,69.43
2023-03-03T05:53:56.621Z,75.88
2023-03-03T05:56:24.026Z,79.70
2023-03-03T05:58:51.366Z,73.70
2023-03-03T06:01:18.671Z,61.42
2023-03-03T06:03:46.019Z,78.32
2023-03-03T06:06:14.040Z,72.63
2023-03-03T06:08:41.331Z,67.30
2023-03-03T06:11:09.962Z,66.90
2023-03-03T06:13:37.339Z,67.55
2023-03-03T06:16:04.827Z,71.93
2023-03-03T06:18:32.148Z,72.22
2023-03-03T06:20:59.434Z,65.20
2023-03-03T06:23:26.777Z,63.67
2023-03-03T06:25:54.048Z,68.60
2023-03-03T06:28:22.764Z,76.07
2023-03-03T06:30:50.087Z,74.40
2023-03-03T06:33:17.398Z,85.45
2023-03-03T06:35:44.810Z,76.13
2023-03-03T06:38:12.132Z,74.57
2023-03-03T06:40:39.512Z,61.05
2023-03-03T06:43:06.788Z,66.10
2023-03-03T06:45:35.475Z,64.03
2023-03-03T06:48:02.924Z,67.97
2023-03-03T06:50:30.306Z,73.10
2023-03-03T06:53:03.772Z,71.40
2023-03-03T06:55:31.668Z,60.77
2023-03-03T06:58:00.145Z,67.57
2023-03-03T07:00:30.800Z,65.28
2023-03-03T07:03:00.699Z,73.25
2023-03-03T07:05:29.052Z,64.40
2023-03-03T07:07:57.252Z,66.43
2023-03-03T07:10:26.114Z,72.13
2023-03-03T07:12:53.443Z,64.50
2023-03-03T07:15:22.732Z,69.85
2023-03-03T07:17:51.406Z,65.63
2023-03-03T07:20:22.317Z,71.78
2023-03-03T07:22:49.855Z,69.75
2023-03-03T07:25:21.610Z,70.43
2023-03-03T07:27:48.947Z,67.28
2023-03-03T07:30:24.669Z,66.50
2023-03-03T07:32:53.887Z,73.72
2023-03-03T07:35:28.165Z,69.70
2023-03-03T07:37:55.536Z,71.60
2023-03-03T07:40:30.186Z,71.15
2023-03-03T07:42:57.514Z,71.60
2023-03-03T07:45:27.331Z,74.22
2023-03-03T07:47:58.071Z,73.45
2023-03-03T07:50:26.864Z,69.53
2023-03-03T07:52:56.772Z,76.28
2023-03-03T07:55:27.818Z,76.05
2023-03-03T07:57:59.164Z,68.95
2023-03-03T08:00:53.507Z,70.65
2023-03-03T08:03:21.851Z,62.63
2023-03-03T08:05:51.584Z,64.03
2023-03-03T08:08:31.515Z,72.55
2023-03-03T08:10:59.256Z,65.13
2023-03-03T08:13:29.304Z,68.72
2023-03-03T08:15:59.250Z,65.85
2023-03-03T08:18:29.047Z,70.70
2023-03-03T08:20:58.850Z,75.60
2023-03-03T08:23:26.148Z,59.38
2023-03-03T08:25:53.533Z,64.90
2023-03-03T08:28:21.407Z,73.13
2023-03-03T08:30:49.075Z,67.22
2023-03-03T08:33:16.787Z,71.35
2023-03-03T08:35:44.152Z,66.72
2023-03-03T08:38:13.638Z,68.78
2023-03-03T08:40:41.079Z,65.88
2023-03-03T08:43:08.437Z,66.03
2023-03-03T08:45:36.301Z,68.25
2023-03-03T08:48:06.025Z,66.50
2023-03-03T08:50:33.551Z,68.57
2023-03-03T08:53:00.847Z,64.25
2023-03-03T08:55:29.503Z,64.13
2023-03-03T08:57:56.807Z,56.03
2023-03-03T09:00:24.794Z,65.68
2023-03-03T09:02:52.327Z,69.68
2023-03-03T09:05:20.384Z,59.50
2023-03-03T09:07:48.182Z,66.20
2023-03-03T09:10:16.863Z,69.40
2023-03-03T09:12:48.215Z,69.13
2023-03-03T09:15:20.945Z,70.20
2023-03-03T09:17:48.886Z,63.83
2023-03-03T09:20:31.561Z,64.90
2023-03-03T09:22:59.361Z,60.03
2023-03-03T09:25:31.625Z,61.58
2023-03-03T09:28:00.440Z,61.65
2023-03-03T09:30:39.273Z,56.50
2023-03-03T09:33:24.453Z,56.20
2023-03-03T09:35:53.773Z,49.55
2023-03-03T09:38:26.562Z,52.08
2023-03-03T09:41:03.713Z,54.80
2023-03-03T09:43:37.342Z,63.33
2023-03-03T09:46:09.207Z,60.53
2023-03-03T09:48:43.199Z,59.83
2023-03-03T09:51:16.129Z,56.90
2023-03-03T09:53:52.354Z,63.75
2023-03-03T09:56:25.262Z,60.10
2023-03-03T09:59:05.122Z,54.20
2023-03-03T10:01:41.759Z,59.63
2023-03-03T10:04:29.959Z,56.92
2023-03-03T10:07:01.678Z,60.67
2023-03-03T10:09:42.147Z,52.45
2023-03-03T10:12:13.382Z,54.28
2023-03-03T10:14:50.420Z,58.03
2023-03-03T10:17:27.027Z,64.55
2023-03-03T10:19:59.928Z,67.95
2023-03-03T10:22:34.653Z,65.03
2023-03-03T10:27:38.227Z,64.22
2023-03-03T10:30:11.735Z,65.82
2023-03-03T10:32:43.287Z,62.42
2023-03-03T10:35:19.934Z,67.00
2023-03-03T10:37:53.451Z,62.92
2023-03-03T10:40:25.518Z,62.50
2023-03-03T10:43:00.070Z,55.40
2023-03-03T10:48:00.391Z,71.43
2023-03-03T10:50:31.614Z,69.45
2023-03-03T10:53:06.813Z,71.97
2023-03-03T10:55:39.652Z,67.45
2023-03-03T10:58:14.340Z,64.50
2023-03-03T11:00:44.431Z,69.30
2023-03-03T11:03:29.530Z,58.85
2023-03-03T11:08:29.066Z,63.80
2023-03-03T11:11:01.849Z,61.90
2023-03-03T11:13:37.393Z,64.53
2023-03-03T11:16:11.735Z,65.22
2023-03-03T11:18:47.272Z,67.00
2023-03-03T11:21:17.939Z,66.72
2023-03-03T11:23:55.491Z,61.55
2023-03-03T11:26:28.058Z,63.67
2023-03-03T11:29:02.566Z,61.25
2023-03-03T11:31:33.581Z,62.35
2023-03-03T11:34:05.288Z,60.22
2023-03-03T11:36:35.668Z,63.72
2023-03-03T11:39:05.182Z,62.80
2023-03-03T11:41:34.684Z,64.47
2023-03-03T11:44:07.868Z,68.28
2023-03-03T11:46:37.391Z,66.43
2023-03-03T11:49:06.062Z,65.65
2023-03-03T11:51:36.941Z,65.18
2023-03-03T11:54:09.674Z,71.03
2023-03-03T11:56:40.662Z,69.72
2023-03-03T11:59:19.059Z,65.40
2023-03-03T12:01:50.430Z,67.35
2023-03-03T12:04:20.994Z,71.63
2023-03-03T12:06:57.432Z,62.65
2023-03-03T12:09:33.028Z,66.13
2023-03-03T12:12:05.853Z,67.55
2023-03-03T12:14:47.324Z,64.80
2023-03-03T12:17:19.495Z,66.43
2023-03-03T12:19:49.946Z,67.95
2023-03-03T12:22:29.564Z,67.28
2023-03-03T12:25:14.690Z,61.33
2023-03-03T12:30:16.065Z,58.42
2023-03-03T12:32:49.900Z,64.72
2023-03-03T12:35:20.646Z,60.90
2023-03-03T12:37:52.632Z,60.05
2023-03-03T12:40:20.707Z,60.00
2023-03-03T12:42:53.425Z,58.60
2023-03-03T12:45:29.166Z,67.85
2023-03-03T12:48:01.033Z,63.22
2023-03-03T12:50:32.655Z,60.83
2023-03-03T12:53:09.888Z,61.53
2023-03-03T12:55:42.358Z,59.58
2023-03-03T12:58:13.506Z,60.10
2023-03-03T13:00:47.729Z,57.45
2023-03-03T13:03:18.642Z,57.05
2023-03-03T13:05:50.743Z,62.65
2023-03-03T13:08:31.885Z,61.08
2023-03-03T13:11:02.714Z,64.25
2023-03-03T13:13:33.947Z,63.65
2023-03-03T13:16:06.560Z,61.67
2023-03-03T13:18:40.164Z,67.20
2023-03-03T13:21:11.710Z,62.13
2023-03-03T13:23:42.738Z,66.55
2023-03-03T13:26:12.543Z,62.75
2023-03-03T13:28:41.630Z,63.75
2023-03-03T13:31:14.363Z,66.32
2023-03-03T13:33:48.820Z,64.57
2023-03-03T13:36:17.681Z,74.30
2023-03-03T13:38:48.445Z,67.25
2023-03-03T13:41:18.444Z,71.05
2023-03-03T13:43:47.572Z,69.88
2023-03-03T13:46:19.702Z,68.82
2023-03-03T13:49:06.151Z,82.85
2023-03-03T13:51:38.208Z,76.78
2023-03-03T13:54:10.098Z,69.03
2023-03-03T13:56:43.020Z,70.63
2023-03-03T13:59:14.434Z,72.60
2023-03-03T14:01:48.624Z,68.45
2023-03-03T14:04:18.017Z,74.78
2023-03-03T14:06:49.307Z,73.03
2023-03-03T14:09:23.251Z,72.93
2023-03-03T14:11:55.282Z,64.60
2023-03-03T14:14:34.929Z,62.75
2023-03-03T14:17:05.590Z,63.58
2023-03-03T14:19:35.728Z,69.43
2023-03-03T14:22:12.894Z,75.03
2023-03-03T14:24:57.612Z,72.03
2023-03-03T14:27:26.487Z,64.57
2023-03-03T14:29:53.884Z,63.30
2023-03-03T14:32:35.885Z,64.63
2023-03-03T14:35:16.701Z,60.33
2023-03-03T14:37:45.336Z,59.75
2023-03-03T14:40:17.777Z,60.78
2023-03-03T14:42:49.096Z,53.70
2023-03-03T14:45:29.510Z,51.22
2023-03-03T14:47:59.793Z,51.47
2023-03-03T14:50:31.955Z,51.03
2023-03-03T14:53:22.126Z,50.55
2023-03-03T14:55:50.413Z,53.95
2023-03-03T14:58:28.414Z,50.22
2023-03-03T15:01:09.049Z,49.75
2023-03-03T15:03:39.094Z,55.22
2023-03-03T15:06:11.773Z,47.95
2023-03-03T15:08:40.179Z,49.85
2023-03-03T15:11:15.007Z,46.58
2023-03-03T15:13:42.352Z,49.67
2023-03-03T15:16:13.298Z,52.33
2023-03-03T15:18:56.558Z,50.00
2023-03-03T15:21:26.719Z,59.30
2023-03-03T15:23:57.326Z,46.92
2023-03-03T15:26:27.433Z,51.88
2023-03-03T15:29:10.100Z,50.88
2023-03-03T15:31:41.756Z,54.78
2023-03-03T15:34:24.831Z,48.72
2023-03-03T15:36:54.104Z,54.63
2023-03-03T15:39:25.741Z,54.28
2023-03-03T15:41:57.991Z,49.28
2023-03-03T15:44:30.184Z,48.35
2023-03-03T15:47:10.466Z,51.85
2023-03-03T15:49:48.361Z,50.08
2023-03-03T15:52:24.858Z,51.88
2023-03-03T15:55:01.079Z,51.65
2023-03-03T15:57:33.099Z,47.75
2023-03-03T16:00:05.223Z,51.97
2023-03-03T16:02:40.042Z,49.42
2023-03-03T16:05:16.199Z,47.08
2023-03-03T16:07:47.785Z,41.10
2023-03-03T16:10:21.884Z,43.95
2023-03-03T16:12:56.118Z,42.67
2023-03-03T16:15:34.960Z,43.53
2023-03-03T16:18:04.650Z,46.63
2023-03-03T16:20:36.008Z,49.25
2023-03-03T16:23:13.668Z,59.58
2023-03-03T16:25:46.320Z,59.70
2023-03-03T16:28:17.511Z,62.03
2023-03-03T16:30:50.206Z,64.82
2023-03-03T16:33:20.427Z,66.05
2023-03-03T16:35:53.284Z,71.25
2023-03-03T16:38:23.558Z,74.80
2023-03-03T16:40:55.157Z,76.45
2023-03-03T16:43:24.969Z,80.28
2023-03-03T16:45:56.844Z,72.85
2023-03-03T16:48:31.963Z,82.38
2023-03-03T16:51:15.446Z,82.93
2023-03-03T16:53:46.600Z,90.80
2023-03-03T16:56:17.707Z,87.45
2023-03-03T16:58:50.936Z,94.03
2023-03-03T17:01:22.545Z,92.03
2023-03-03T17:03:56.827Z,95.75
2023-03-03T17:06:30.230Z,92.90
2023-03-03T17:09:11.697Z,97.93
2023-03-03T17:11:44.971Z,95.75
2023-03-03T17:14:22.854Z,89.40
2023-03-03T17:16:53.906Z,99.72
2023-03-03T17:19:25.852Z,90.80
2023-03-03T17:22:01.150Z,94.38
2023-03-03T17:24:34.097Z,87.15
2023-03-03T17:27:07.268Z,86.07
2023-03-03T17:29:39.695Z,99.63
2023-03-03T17:32:15.139Z,103.72
2023-03-03T17:34:48.977Z,92.13
2023-03-03T17:37:22.840Z,103.93
2023-03-03T17:40:03.608Z,104.25
2023-03-03T17:42:35.140Z,107.20
2023-03-03T17:45:05.049Z,118.22
2023-03-03T17:47:41.368Z,113.40
2023-03-03T17:50:35.821Z,112.47
2023-03-03T17:53:26.220Z,107.67
2023-03-03T17:56:00.659Z,121.85
2023-03-03T17:58:45.003Z,115.72
2023-03-03T18:01:19.074Z,116.00
2023-03-03T18:04:07.954Z,118.28
2023-03-03T18:07:03.204Z,126.45
2023-03-03T18:09:37.788Z,122.30
2023-03-03T18:14:53.297Z,126.07
2023-03-03T18:17:28.125Z,134.68
2023-03-03T18:20:02.121Z,142.70
2023-03-03T18:22:32.426Z,150.15
2023-03-03T18:25:02.501Z,156.90
2023-03-03T18:27:31.322Z,146.32
2023-03-03T18:30:17.381Z,151.70
2023-03-03T18:32:47.581Z,155.80
2023-03-03T18:35:25.062Z,150.35
2023-03-03T18:37:52.789Z,148.93
2023-03-03T18:40:30.674Z,159.13
2023-03-03T18:42:58.037Z,150.38
2023-03-03T18:45:44.257Z,156.18
2023-03-03T18:48:12.305Z,157.55
2023-03-03T18:50:40.266Z,147.82
2023-03-03T18:53:16.323Z,145.25
2023-03-03T18:55:45.829Z,151.13
2023-03-03T18:58:29.069Z,155.50
2023-03-03T19:01:00.711Z,155.43
2023-03-03T19:03:29.803Z,168.45
2023-03-03T19:05:59.889Z,160.88
2023-03-03T19:08:27.960Z,157.75
2023-03-03T19:10:57.628Z,159.35
2023-03-03T19:13:41.115Z,155.52
2023-03-03T19:16:09.207Z,166.40
2023-03-03T19:18:37.103Z,170.15
2023-03-03T19:21:06.090Z,164.35
2023-03-03T19:23:50.738Z,163.88
2023-03-03T19:26:45.025Z,166.73
2023-03-03T19:29:19.274Z,162.33
2023-03-03T19:31:49.301Z,169.75
2023-03-03T19:34:23.270Z,178.10
2023-03-03T19:37:02.220Z,174.30
2023-03-03T19:39:51.228Z,194.43
2023-03-03T19:42:22.932Z,176.25
2023-03-03T19:44:58.827Z,170.80
2023-03-03T19:47:34.091Z,172.18
2023-03-03T19:50:10.428Z,176.93
2023-03-03T19:52:39.902Z,184.32
2023-03-03T19:55:16.870Z,179.73
2023-03-03T19:57:47.047Z,177.68
2023-03-03T20:00:20.170Z,181.02
2023-03-03T20:02:50.861Z,164.75
2023-03-03T20:05:22.279Z,189.18
2023-03-03T20:07:54.773Z,169.25
2023-03-03T20:10:34.748Z,189.23
2023-03-03T20:13:07.695Z,177.25
2023-03-03T20:15:42.662Z,167.68
2023-03-03T20:18:24.123Z,168.38
2023-03-03T20:20:57.449Z,189.45
2023-03-03T20:23:29.528Z,150.05
2023-03-03T20:26:01.134Z,172.88
2023-03-03T20:28:41.576Z,175.68
2023-03-03T20:31:14.135Z,171.15
2023-03-03T20:33:48.483Z,170.80
2023-03-03T20:36:19.984Z,173.13
2023-03-03T20:38:52.835Z,172.07
2023-03-03T20:41:27.298Z,172.25
2023-03-03T20:43:59.637Z,168.73
2023-03-03T20:46:34.600Z,172.43
2023-03-03T20:49:14.056Z,154.95
2023-03-03T20:51:43.916Z,157.07
2023-03-03T20:54:17.876Z,145.85
2023-03-03T20:56:49.626Z,151.98
2023-03-03T20:59:21.513Z,161.63
2023-03-03T21:01:54.252Z,152.52
2023-03-03T21:04:22.826Z,154.32
2023-03-03T21:06:50.454Z,164.93
2023-03-03T21:09:24.869Z,146.98
2023-03-03T21:11:52.204Z,146.70
2023-03-03T21:14:21.415Z,143.55
2023-03-03T21:16:49.219Z,134.93
2023-03-03T21:19:26.194Z,155.75
2023-03-03T21:21:53.733Z,175.15
2023-03-03T21:24:21.630Z,147.45
2023-03-03T21:26:53.251Z,126.70
2023-03-03T21:29:21.750Z,101.70
2023-03-03T21:31:49.859Z,113.72
2023-03-03T21:34:21.544Z,115.85
2023-03-03T21:36:50.766Z,107.10
2023-03-03T21:39:25.712Z,97.55
2023-03-03T21:41:56.798Z,85.72
2023-03-03T21:44:31.596Z,81.78
2023-03-03T21:46:58.945Z,86.45
2023-03-03T21:49:26.346Z,83.88
2023-03-03T21:51:55.348Z,96.85
2023-03-03T21:54:22.906Z,103.53
2023-03-03T21:56:50.706Z,85.28
2023-03-03T21:59:18.202Z,93.95
2023-03-03T22:01:45.532Z,72.95
2023-03-03T22:04:12.860Z,69.97
2023-03-03T22:06:40.386Z,60.75
2023-03-03T22:09:09.140Z,66.55
2023-03-03T22:11:36.478Z,60.95
2023-03-03T22:14:03.956Z,61.80
2023-03-03T22:16:31.260Z,62.17
2023-03-03T22:18:59.496Z,56.72
2023-03-03T22:21:27.993Z,60.10
2023-03-03T22:23:55.299Z,59.60
2023-03-03T22:26:23.997Z,60.95
2023-03-03T22:28:51.457Z,65.15
2023-03-03T22:31:19.903Z,60.45
2023-03-03T22:33:47.495Z,57.90
2023-03-03T22:36:15.172Z,57.95
2023-03-03T22:38:42.813Z,53.85
2023-03-03T22:41:10.109Z,54.88
2023-03-03T22:43:38.764Z,58.95
2023-03-03T22:46:06.220Z,56.03
2023-03-03T22:48:33.631Z,56.30
2023-03-03T22:51:00.974Z,51.70
2023-03-03T22:53:28.275Z,52.05
2023-03-03T22:55:55.590Z,56.83
2023-03-03T22:58:25.338Z,55.28
2023-03-03T23:00:54.629Z,53.38
2023-03-03T23:03:22.063Z,58.88
2023-03-03T23:05:51.734Z,54.78
2023-03-03T23:08:20.115Z,56.05
2023-03-03T23:10:47.688Z,57.60
2023-03-03T23:13:15.162Z,57.78
2023-03-03T23:15:42.600Z,60.72
2023-03-03T23:18:11.747Z,60.40
2023-03-03T23:20:39.077Z,61.30
2023-03-03T23:23:06.433Z,56.20
2023-03-03T23:25:34.288Z,57.45
2023-03-03T23:28:01.565Z,57.78
2023-03-03T23:30:28.875Z,60.65
2023-03-03T23:32:56.129Z,61.33
2023-03-03T23:35:24.853Z,52.55
2023-03-03T23:37:52.224Z,62.53
2023-03-03T23:40:19.637Z,55.78
2023-03-03T23:42:47.196Z,52.55
2023-03-03T23:45:14.835Z,55.92
2023-03-03T23:47:42.304Z,53.97
2023-03-03T23:50:10.510Z,49.45
2023-03-03T23:52:39.293Z,52.00
2023-03-03T23:55:07.229Z,55.33
2023-03-03T23:57:34.558Z,53.13
